createdAt,value
2018-01-13T00:00:00.162Z,52.44
2018-01-13T00:02:29.080Z,51.98
2018-01-13T00:04:58.621Z,50.86
2018-01-13T00:07:26.883Z,58.92
2018-01-13T00:09:55.192Z,54.44
2018-01-13T00:12:23.443Z,52.88
2018-01-13T00:14:50.972Z,49.22
2018-01-13T00:17:19.248Z,52.80
2018-01-13T00:19:47.526Z,51.84
2018-01-13T00:22:15.781Z,50.46
2018-01-13T00:24:54.485Z,51.10
2018-01-13T00:27:22.737Z,53.94
2018-01-13T00:29:50.998Z,48.96
2018-01-13T00:32:19.277Z,52.92
2018-01-13T00:34:47.525Z,53.00
2018-01-13T00:37:15.809Z,50.48
2018-01-13T00:39:51.128Z,50.72
2018-01-13T00:42:19.438Z,48.68
2018-01-13T00:44:47.689Z,46.96
2018-01-13T00:47:17.936Z,49.92
2018-01-13T00:49:46.185Z,52.84
2018-01-13T00:52:13.688Z,49.42
2018-01-13T00:54:41.969Z,51.38
2018-01-13T00:57:10.237Z,48.42
2018-01-13T00:59:38.518Z,47.24
2018-01-13T01:02:06.894Z,49.48
2018-01-13T01:04:35.141Z,48.58
2018-01-13T01:07:03.394Z,47.28
2018-01-13T01:09:31.670Z,50.32
2018-01-13T01:12:01.082Z,45.06
2018-01-13T01:14:30.049Z,46.08
2018-01-13T01:16:58.952Z,51.34
2018-01-13T01:19:27.208Z,48.22
2018-01-13T01:21:55.694Z,47.22
2018-01-13T01:24:23.944Z,48.60
2018-01-13T01:26:59.828Z,51.32
2018-01-13T01:29:28.889Z,48.36
2018-01-13T01:31:57.137Z,48.28
2018-01-13T01:34:25.437Z,46.62
2018-01-13T01:36:53.702Z,49.20
2018-01-13T01:39:22.986Z,46.08
2018-01-13T01:41:51.252Z,50.56
2018-01-13T01:44:19.534Z,46.96
2018-01-13T01:46:47.802Z,50.40
2018-01-13T01:49:17.037Z,48.74
2018-01-13T01:51:45.321Z,46.82
2018-01-13T01:54:13.593Z,44.08
2018-01-13T01:56:41.838Z,45.96
2018-01-13T01:59:26.914Z,48.50
2018-01-13T02:01:55.166Z,45.58
2018-01-13T02:04:23.476Z,48.02
2018-01-13T02:06:51.744Z,49.06
2018-01-13T02:09:20.938Z,48.36
2018-01-13T02:11:49.233Z,42.68
2018-01-13T02:14:17.486Z,42.88
2018-01-13T02:16:45.734Z,42.04
2018-01-13T02:19:24.218Z,42.92
2018-01-13T02:21:52.466Z,43.26
2018-01-13T02:24:20.754Z,44.82
2018-01-13T02:26:49.010Z,47.18
2018-01-13T02:29:17.292Z,43.42
2018-01-13T02:31:45.541Z,48.38
2018-01-13T02:34:13.836Z,49.98
2018-01-13T02:36:45.218Z,48.34
2018-01-13T02:39:13.514Z,44.28
2018-01-13T02:41:41.760Z,42.14
2018-01-13T02:44:10.982Z,47.16
2018-01-13T02:46:39.270Z,47.48
2018-01-13T02:49:07.549Z,51.62
2018-01-13T02:51:35.821Z,52.92
2018-01-13T02:54:07.235Z,53.30
2018-01-13T02:56:35.491Z,47.70
2018-01-13T02:59:03.795Z,49.80
2018-01-13T03:01:31.290Z,48.54
2018-01-13T03:03:59.967Z,52.10
2018-01-13T03:06:29.410Z,55.28
2018-01-13T03:08:58.067Z,52.98
2018-01-13T03:11:26.363Z,47.84
2018-01-13T03:13:54.621Z,49.14
2018-01-13T03:16:22.918Z,51.18
2018-01-13T03:18:51.170Z,49.00
2018-01-13T03:21:19.435Z,47.98
2018-01-13T03:23:47.725Z,50.94
2018-01-13T03:26:15.987Z,48.98
2018-01-13T03:28:44.265Z,46.94
2018-01-13T03:31:12.528Z,46.78
2018-01-13T03:33:40.806Z,47.90
2018-01-13T03:36:09.086Z,51.34
2018-01-13T03:38:37.346Z,48.04
2018-01-13T03:41:05.642Z,49.34
2018-01-13T03:43:33.904Z,47.00
2018-01-13T03:46:02.186Z,44.60
2018-01-13T03:48:30.442Z,49.52
2018-01-13T03:50:59.506Z,50.84
2018-01-13T03:53:28.479Z,49.10
2018-01-13T03:56:03.883Z,44.96
2018-01-13T03:58:32.139Z,46.88
2018-01-13T04:01:00.406Z,48.46
2018-01-13T04:03:29.054Z,50.54
2018-01-13T04:05:58.243Z,49.60
2018-01-13T04:08:26.502Z,48.32
2018-01-13T04:10:54.753Z,50.36
2018-01-13T04:13:23.055Z,44.46
2018-01-13T04:15:51.318Z,43.94
2018-01-13T04:18:19.570Z,43.60
2018-01-13T04:20:47.950Z,46.40
2018-01-13T04:23:21.965Z,51.18
2018-01-13T04:25:50.247Z,48.42
2018-01-13T04:28:18.507Z,45.60
2018-01-13T04:30:46.786Z,46.04
2018-01-13T04:33:15.070Z,47.88
2018-01-13T04:35:43.330Z,47.56
2018-01-13T04:38:11.626Z,47.50
2018-01-13T04:40:39.885Z,48.20
2018-01-13T04:43:09.166Z,44.40
2018-01-13T04:45:37.427Z,44.78
2018-01-13T04:48:05.686Z,47.84
2018-01-13T04:50:33.979Z,54.76
2018-01-13T04:53:02.237Z,49.90
2018-01-13T04:55:30.526Z,50.58
2018-01-13T04:57:59.602Z,48.24
2018-01-13T05:00:28.590Z,48.56
2018-01-13T05:02:56.871Z,47.70
2018-01-13T05:05:25.158Z,43.96
2018-01-13T05:07:53.414Z,44.94
2018-01-13T05:10:21.698Z,44.48
2018-01-13T05:12:49.987Z,46.74
2018-01-13T05:15:18.246Z,48.00
2018-01-13T05:17:46.511Z,46.62
2018-01-13T05:20:14.801Z,43.50
2018-01-13T05:22:43.067Z,46.30
2018-01-13T05:25:11.335Z,43.60
2018-01-13T05:27:39.630Z,44.66
2018-01-13T05:30:07.890Z,40.20
2018-01-13T05:32:36.147Z,43.10
2018-01-13T05:35:04.422Z,40.90
2018-01-13T05:37:32.722Z,42.50
2018-01-13T05:40:00.987Z,44.50
2018-01-13T05:42:29.970Z,44.86
2018-01-13T05:44:58.859Z,42.10
2018-01-13T05:47:27.118Z,39.16
2018-01-13T05:49:55.402Z,44.58
2018-01-13T05:52:23.653Z,43.16
2018-01-13T05:55:05.794Z,40.52
2018-01-13T05:57:34.050Z,41.62
2018-01-13T06:00:02.354Z,42.78
2018-01-13T06:02:29.846Z,42.28
2018-01-13T06:04:58.841Z,40.22
2018-01-13T06:07:27.122Z,39.98
2018-01-13T06:09:55.382Z,42.80
2018-01-13T06:12:23.671Z,40.64
2018-01-13T06:14:52.862Z,38.90
2018-01-13T06:17:21.154Z,41.92
2018-01-13T06:19:49.405Z,40.76
2018-01-13T06:22:17.671Z,40.68
2018-01-13T06:24:51.760Z,43.56
2018-01-13T06:27:20.386Z,42.68
2018-01-13T06:29:48.646Z,44.20
2018-01-13T06:32:16.926Z,41.36
2018-01-13T06:34:45.178Z,42.04
2018-01-13T06:37:13.466Z,42.78
2018-01-13T06:39:41.717Z,43.10
2018-01-13T06:42:10.018Z,42.60
2018-01-13T06:44:38.270Z,41.96
2018-01-13T06:47:06.527Z,44.72
2018-01-13T06:49:34.811Z,41.62
2018-01-13T06:52:03.072Z,40.86
2018-01-13T06:54:31.354Z,39.84
2018-01-13T06:57:00.094Z,44.16
2018-01-13T06:59:29.051Z,42.94
2018-01-13T07:01:58.134Z,42.18
2018-01-13T07:04:26.383Z,42.96
2018-01-13T07:06:54.682Z,43.18
2018-01-13T07:09:22.935Z,41.72
2018-01-13T07:11:51.187Z,39.74
2018-01-13T07:14:19.470Z,38.50
2018-01-13T07:16:46.990Z,41.98
2018-01-13T07:19:15.242Z,42.02
2018-01-13T07:21:43.534Z,37.70
2018-01-13T07:24:11.793Z,41.70
2018-01-13T07:26:42.734Z,41.26
2018-01-13T07:29:10.982Z,40.56
2018-01-13T07:31:39.226Z,42.08
2018-01-13T07:34:07.517Z,38.12
2018-01-13T07:36:35.774Z,40.02
2018-01-13T07:39:07.681Z,39.40
2018-01-13T07:41:35.988Z,39.02
2018-01-13T07:44:10.590Z,40.54
2018-01-13T07:46:38.873Z,40.28
2018-01-13T07:49:07.129Z,38.72
2018-01-13T07:51:35.414Z,35.04
2018-01-13T07:54:03.674Z,36.82
2018-01-13T07:56:32.945Z,38.66
2018-01-13T07:59:01.194Z,34.68
2018-01-13T08:01:30.159Z,38.88
2018-01-13T08:03:58.084Z,37.72
2018-01-13T08:06:26.344Z,35.98
2018-01-13T08:08:54.607Z,35.22
2018-01-13T08:11:22.987Z,33.00
2018-01-13T08:13:51.271Z,35.02
2018-01-13T08:16:19.522Z,35.86
2018-01-13T08:18:47.813Z,36.64
2018-01-13T08:21:16.062Z,35.68
2018-01-13T08:23:44.366Z,36.16
2018-01-13T08:26:12.622Z,33.44
2018-01-13T08:28:40.872Z,33.72
2018-01-13T08:31:09.147Z,33.66
2018-01-13T08:33:37.397Z,33.50
2018-01-13T08:36:05.686Z,34.48
2018-01-13T08:38:33.939Z,33.10
2018-01-13T08:41:02.195Z,35.38
2018-01-13T08:43:30.479Z,33.54
2018-01-13T08:45:59.350Z,32.52
2018-01-13T08:48:28.044Z,32.04
2018-01-13T08:50:56.295Z,29.88
2018-01-13T08:53:24.542Z,30.74
2018-01-13T08:55:52.826Z,31.12
2018-01-13T08:58:21.074Z,28.92
2018-01-13T09:00:49.369Z,29.80
2018-01-13T09:03:17.630Z,29.40
2018-01-13T09:05:45.883Z,29.42
2018-01-13T09:08:14.175Z,29.04
2018-01-13T09:10:42.445Z,28.68
2018-01-13T09:13:10.703Z,28.66
2018-01-13T09:15:38.978Z,28.06
2018-01-13T09:18:07.263Z,26.72
2018-01-13T09:20:34.778Z,25.12
2018-01-13T09:23:03.054Z,24.46
2018-01-13T09:25:31.302Z,23.10
2018-01-13T09:27:59.902Z,22.44
2018-01-13T09:30:29.062Z,20.56
2018-01-13T09:32:59.026Z,21.78
2018-01-13T09:35:28.483Z,20.56
2018-01-13T09:37:56.779Z,23.10
2018-01-13T09:40:25.037Z,20.02
2018-01-13T09:42:53.299Z,21.48
2018-01-13T09:45:21.601Z,20.58
2018-01-13T09:47:49.886Z,21.56
2018-01-13T09:50:18.146Z,21.30
2018-01-13T09:52:46.430Z,22.08
2018-01-13T09:55:14.686Z,19.34
2018-01-13T09:57:42.970Z,20.60
2018-01-13T10:00:11.222Z,20.88
2018-01-13T10:02:39.514Z,22.00
2018-01-13T10:05:07.767Z,21.74
2018-01-13T10:07:36.034Z,19.98
2018-01-13T10:10:04.325Z,21.44
2018-01-13T10:12:32.648Z,21.50
2018-01-13T10:15:00.931Z,20.48
2018-01-13T10:17:29.904Z,19.12
2018-01-13T10:19:58.870Z,19.22
2018-01-13T10:22:27.130Z,19.80
2018-01-13T10:24:55.378Z,19.48
2018-01-13T10:27:23.662Z,20.64
2018-01-13T10:29:51.940Z,19.32
2018-01-13T10:32:32.992Z,22.06
2018-01-13T10:35:01.262Z,21.82
2018-01-13T10:37:35.419Z,20.52
2018-01-13T10:40:03.711Z,20.40
2018-01-13T10:42:38.163Z,19.12
2018-01-13T10:45:06.446Z,20.44
2018-01-13T10:47:34.739Z,20.22
2018-01-13T10:50:02.986Z,23.44
2018-01-13T10:52:31.246Z,24.26
2018-01-13T10:54:59.745Z,17.92
2018-01-13T10:57:29.098Z,19.82
2018-01-13T10:59:58.074Z,18.40
2018-01-13T11:02:26.358Z,16.08
2018-01-13T11:04:54.621Z,17.18
2018-01-13T11:07:22.914Z,17.38
2018-01-13T11:09:51.166Z,17.16
2018-01-13T11:12:19.423Z,19.06
2018-01-13T11:14:47.718Z,17.20
2018-01-13T11:17:15.982Z,15.32
2018-01-13T11:19:50.047Z,17.80
2018-01-13T11:22:18.298Z,18.28
2018-01-13T11:24:46.558Z,17.18
2018-01-13T11:27:14.869Z,15.64
2018-01-13T11:29:43.159Z,16.66
2018-01-13T11:32:10.646Z,18.46
2018-01-13T11:34:38.907Z,14.24
2018-01-13T11:37:07.189Z,16.86
2018-01-13T11:39:35.454Z,15.96
2018-01-13T11:42:02.971Z,15.88
2018-01-13T11:44:31.239Z,15.96
2018-01-13T11:47:00.447Z,14.38
2018-01-13T11:49:29.430Z,15.10
2018-01-13T11:51:58.501Z,15.92
2018-01-13T11:54:30.245Z,14.96
2018-01-13T11:56:58.911Z,14.06
2018-01-13T11:59:27.170Z,11.62
2018-01-13T12:01:55.454Z,14.34
2018-01-13T12:04:23.706Z,12.48
2018-01-13T12:06:58.826Z,11.68
2018-01-13T12:09:27.083Z,11.32
2018-01-13T12:11:55.343Z,13.40
2018-01-13T12:14:23.634Z,13.46
2018-01-13T12:16:51.890Z,12.10
2018-01-13T12:19:23.139Z,12.66
2018-01-13T12:21:51.402Z,11.82
2018-01-13T12:24:19.694Z,11.94
2018-01-13T12:26:47.178Z,12.40
2018-01-13T12:29:15.435Z,13.00
2018-01-13T12:31:43.722Z,12.52
2018-01-13T12:34:14.630Z,12.80
2018-01-13T12:36:42.915Z,12.14
2018-01-13T12:39:11.204Z,11.84
2018-01-13T12:41:39.449Z,12.50
2018-01-13T12:44:07.735Z,12.20
2018-01-13T12:46:42.111Z,11.88
2018-01-13T12:49:10.397Z,12.86
2018-01-13T12:51:38.659Z,13.12
2018-01-13T12:54:06.946Z,12.32
2018-01-13T12:56:35.203Z,12.84
2018-01-13T12:59:03.487Z,11.68
2018-01-13T13:01:31.774Z,12.82
2018-01-13T13:04:01.206Z,12.36
2018-01-13T13:06:30.210Z,12.50
2018-01-13T13:08:58.894Z,11.74
2018-01-13T13:11:28.988Z,12.38
2018-01-13T13:13:58.385Z,13.00
2018-01-13T13:16:26.666Z,12.26
2018-01-13T13:18:54.951Z,11.86
2018-01-13T13:21:23.202Z,12.52
2018-01-13T13:23:51.506Z,13.10
2018-01-13T13:26:19.802Z,13.16
2018-01-13T13:28:54.783Z,11.04
2018-01-13T13:31:23.034Z,13.08
2018-01-13T13:33:51.295Z,12.50
2018-01-13T13:36:19.583Z,11.38
2018-01-13T13:38:58.859Z,10.74
2018-01-13T13:41:27.111Z,10.94
2018-01-13T13:43:55.394Z,11.16
2018-01-13T13:46:23.676Z,13.02
2018-01-13T13:48:51.962Z,11.32
2018-01-13T13:51:26.178Z,10.86
2018-01-13T13:53:54.467Z,10.88
2018-01-13T13:56:22.719Z,12.66
2018-01-13T13:58:51.030Z,11.32
2018-01-13T14:01:28.592Z,11.90
2018-01-13T14:03:46.834Z,11.04
2018-01-13T14:06:15.082Z,11.66
2018-01-13T14:08:43.330Z,12.50
2018-01-13T14:11:11.614Z,11.50
2018-01-13T14:13:39.866Z,11.88
2018-01-13T14:16:07.388Z,11.92
2018-01-13T14:18:35.639Z,10.54
2018-01-13T14:21:07.438Z,10.62
2018-01-13T14:23:35.727Z,12.88
2018-01-13T14:26:14.405Z,11.78
2018-01-13T14:28:42.658Z,11.08
2018-01-13T14:31:10.906Z,12.22
2018-01-13T14:33:39.209Z,12.82
2018-01-13T14:36:07.458Z,12.20
2018-01-13T14:38:35.709Z,11.52
2018-01-13T14:41:13.787Z,11.02
2018-01-13T14:43:42.046Z,13.22
2018-01-13T14:46:09.575Z,12.08
2018-01-13T14:48:37.836Z,13.56
2018-01-13T14:51:06.123Z,12.64
2018-01-13T14:53:34.398Z,11.84
2018-01-13T14:56:02.662Z,11.66
2018-01-13T14:58:30.938Z,11.50
2018-01-13T15:00:59.806Z,13.88
2018-01-13T15:03:28.934Z,12.48
2018-01-13T15:05:57.189Z,13.26
2018-01-13T15:08:25.471Z,14.76
2018-01-13T15:10:53.719Z,12.28
2018-01-13T15:13:22.020Z,14.38
2018-01-13T15:15:50.283Z,13.12
2018-01-13T15:18:18.536Z,10.68
2018-01-13T15:20:46.847Z,12.04
2018-01-13T15:23:15.098Z,12.14
2018-01-13T15:25:43.359Z,11.42
2018-01-13T15:28:11.638Z,10.90
2018-01-13T15:30:39.972Z,12.04
2018-01-13T15:33:08.207Z,13.26
2018-01-13T15:35:36.455Z,12.66
2018-01-13T15:38:04.737Z,14.42
2018-01-13T15:40:32.986Z,11.98
2018-01-13T15:43:01.278Z,13.04
2018-01-13T15:45:29.930Z,14.34
2018-01-13T15:47:59.354Z,12.50
2018-01-13T15:50:31.056Z,13.96
2018-01-13T15:53:00.205Z,13.82
2018-01-13T15:55:29.453Z,14.18
2018-01-13T15:57:57.770Z,16.84
2018-01-13T16:00:26.053Z,11.18
2018-01-13T16:02:54.310Z,13.12
2018-01-13T16:05:22.600Z,10.90
2018-01-13T16:07:54.120Z,11.16
2018-01-13T16:10:22.415Z,11.14
2018-01-13T16:13:01.887Z,12.38
2018-01-13T16:15:30.185Z,11.84
2018-01-13T16:17:58.911Z,14.24
2018-01-13T16:20:27.162Z,14.32
2018-01-13T16:23:02.082Z,12.46
2018-01-13T16:25:30.216Z,13.44
2018-01-13T16:27:59.054Z,15.38
2018-01-13T16:30:28.310Z,14.46
2018-01-13T16:32:56.574Z,14.36
2018-01-13T16:35:24.838Z,15.28
2018-01-13T16:37:53.141Z,15.28
2018-01-13T16:40:45.005Z,17.84
2018-01-13T16:43:13.294Z,14.74
2018-01-13T16:45:43.514Z,14.86
2018-01-13T16:48:11.788Z,14.84
2018-01-13T16:50:40.074Z,14.36
2018-01-13T16:53:14.032Z,15.38
2018-01-13T16:55:42.289Z,13.46
2018-01-13T16:58:11.543Z,14.08
2018-01-13T17:00:39.837Z,13.72
2018-01-13T17:03:08.106Z,12.28
2018-01-13T17:05:36.395Z,13.98
2018-01-13T17:08:05.662Z,14.80
2018-01-13T17:10:33.990Z,11.82
2018-01-13T17:13:11.511Z,13.12
2018-01-13T17:15:39.798Z,12.94
2018-01-13T17:18:08.132Z,12.52
2018-01-13T17:20:36.432Z,13.66
2018-01-13T17:23:05.670Z,12.48
2018-01-13T17:25:34.004Z,12.72
2018-01-13T17:28:03.281Z,13.16
2018-01-13T17:30:31.579Z,13.54
2018-01-13T17:33:00.211Z,12.96
2018-01-13T17:35:28.466Z,15.98
2018-01-13T17:37:59.579Z,15.12
2018-01-13T17:40:28.648Z,14.82
2018-01-13T17:42:58.878Z,13.60
2018-01-13T17:45:27.217Z,14.00
2018-01-13T17:47:56.526Z,14.46
2018-01-13T17:50:24.810Z,13.00
2018-01-13T17:52:52.352Z,13.24
2018-01-13T17:55:20.642Z,11.54
2018-01-13T17:58:02.658Z,13.66
2018-01-13T18:00:30.942Z,13.06
2018-01-13T18:03:02.620Z,13.40
2018-01-13T18:05:44.487Z,14.18
2018-01-13T18:08:12.781Z,14.80
2018-01-13T18:10:46.957Z,14.94
2018-01-13T18:13:15.240Z,16.76
2018-01-13T18:15:44.504Z,14.24
2018-01-13T18:18:12.787Z,12.98
2018-01-13T18:20:46.634Z,13.40
2018-01-13T18:23:14.918Z,13.30
2018-01-13T18:25:43.175Z,12.90
2018-01-13T18:28:11.474Z,12.34
2018-01-13T18:30:39.737Z,13.58
2018-01-13T18:33:08.002Z,13.60
2018-01-13T18:35:36.332Z,12.78
2018-01-13T18:38:04.632Z,13.30
2018-01-13T18:40:32.965Z,14.98
2018-01-13T18:43:01.274Z,12.76
2018-01-13T18:45:30.478Z,12.28
2018-01-13T18:47:59.532Z,14.08
2018-01-13T18:50:28.552Z,13.62
2018-01-13T18:52:56.853Z,14.20
2018-01-13T18:55:25.193Z,14.10
2018-01-13T18:57:53.458Z,14.32
2018-01-13T19:00:21.753Z,15.50
2018-01-13T19:02:50.062Z,14.24
2018-01-13T19:05:18.410Z,13.92
2018-01-13T19:07:46.717Z,15.60
2018-01-13T19:10:14.248Z,13.76
2018-01-13T19:12:42.626Z,14.80
2018-01-13T19:15:10.891Z,16.50
2018-01-13T19:17:39.162Z,14.08
2018-01-13T19:20:06.687Z,13.88
2018-01-13T19:22:34.994Z,15.34
2018-01-13T19:25:03.295Z,14.74
2018-01-13T19:27:31.624Z,17.52
2018-01-13T19:30:00.122Z,16.04
2018-01-13T19:32:29.114Z,16.78
2018-01-13T19:34:58.017Z,15.72
2018-01-13T19:37:26.329Z,15.26
2018-01-13T19:39:54.615Z,15.64
2018-01-13T19:42:22.912Z,13.96
2018-01-13T19:44:51.241Z,14.64
2018-01-13T19:47:19.535Z,16.22
2018-01-13T19:49:47.845Z,14.86
2018-01-13T19:52:16.099Z,14.94
2018-01-13T19:54:43.681Z,17.04
2018-01-13T19:57:11.986Z,14.72
2018-01-13T19:59:42.277Z,14.54
2018-01-13T20:02:10.534Z,13.38
2018-01-13T20:04:53.406Z,13.44
2018-01-13T20:07:21.697Z,14.26
2018-01-13T20:09:53.957Z,14.18
2018-01-13T20:12:22.250Z,13.24
2018-01-13T20:14:50.590Z,14.62
2018-01-13T20:17:18.971Z,14.50
2018-01-13T20:19:47.273Z,14.24
2018-01-13T20:22:15.548Z,14.38
2018-01-13T20:24:43.848Z,15.04
2018-01-13T20:27:18.025Z,15.40
2018-01-13T20:29:46.370Z,14.94
2018-01-13T20:32:15.593Z,15.56
2018-01-13T20:34:43.931Z,14.00
2018-01-13T20:37:35.579Z,15.14
2018-01-13T20:40:03.887Z,13.80
2018-01-13T20:42:37.749Z,13.86
2018-01-13T20:45:06.086Z,15.20
2018-01-13T20:47:35.310Z,14.60
2018-01-13T20:50:03.647Z,16.88
2018-01-13T20:52:32.001Z,14.28
2018-01-13T20:55:00.313Z,15.52
2018-01-13T20:57:29.038Z,15.98
2018-01-13T21:00:04.467Z,14.88
2018-01-13T21:02:32.754Z,14.54
2018-01-13T21:05:01.092Z,15.10
2018-01-13T21:07:29.974Z,15.92
2018-01-13T21:09:59.181Z,15.98
2018-01-13T21:12:28.134Z,15.06
2018-01-13T21:14:56.411Z,15.92
2018-01-13T21:17:24.757Z,15.20
2018-01-13T21:19:53.067Z,15.70
2018-01-13T21:22:21.408Z,16.54
2018-01-13T21:24:49.716Z,17.12
2018-01-13T21:27:18.052Z,15.70
2018-01-13T21:29:46.370Z,17.54
2018-01-13T21:32:14.700Z,17.56
2018-01-13T21:34:42.957Z,17.58
2018-01-13T21:37:11.293Z,16.34
2018-01-13T21:39:39.630Z,16.26
2018-01-13T21:42:07.937Z,16.10
2018-01-13T21:44:46.088Z,16.30
2018-01-13T21:47:14.346Z,18.04
2018-01-13T21:49:42.694Z,16.56
2018-01-13T21:52:10.988Z,16.92
2018-01-13T21:54:39.305Z,16.30
2018-01-13T21:57:07.625Z,16.14
2018-01-13T21:59:35.961Z,16.60
2018-01-13T22:02:14.280Z,17.58
2018-01-13T22:04:42.617Z,15.70
2018-01-13T22:07:10.931Z,17.30
2018-01-13T22:09:39.266Z,15.98
2018-01-13T22:12:07.534Z,15.56
2018-01-13T22:14:35.857Z,15.54
2018-01-13T22:17:23.417Z,15.64
2018-01-13T22:19:51.740Z,16.14
2018-01-13T22:22:30.209Z,16.94
2018-01-13T22:24:58.859Z,17.62
2018-01-13T22:27:34.188Z,17.92
2018-01-13T22:30:02.518Z,15.76
2018-01-13T22:32:30.864Z,17.30
2018-01-13T22:34:59.717Z,16.86
2018-01-13T22:37:28.668Z,16.40
2018-01-13T22:39:56.996Z,15.60
2018-01-13T22:42:25.302Z,17.58
2018-01-13T22:44:53.648Z,15.98
2018-01-13T22:47:21.953Z,15.96
2018-01-13T22:50:10.592Z,16.76
2018-01-13T22:52:38.909Z,14.98
2018-01-13T22:55:07.216Z,15.40
2018-01-13T22:57:35.547Z,15.42
2018-01-13T23:00:03.887Z,16.54
2018-01-13T23:02:32.147Z,18.18
2018-01-13T23:05:00.430Z,16.88
2018-01-13T23:07:29.648Z,17.78
2018-01-13T23:09:58.713Z,17.38
2018-01-13T23:12:28.712Z,17.90
2018-01-13T23:14:56.966Z,18.20
2018-01-13T23:17:25.260Z,18.96
2018-01-13T23:19:53.601Z,17.34
2018-01-13T23:22:21.899Z,18.46
2018-01-13T23:24:50.154Z,18.92
2018-01-13T23:27:22.365Z,18.02
2018-01-13T23:29:50.622Z,17.96
2018-01-13T23:32:18.952Z,17.78
2018-01-13T23:34:47.210Z,20.34
2018-01-13T23:37:15.638Z,16.46
2018-01-13T23:39:43.899Z,18.52
2018-01-13T23:42:12.193Z,18.04
2018-01-13T23:44:40.516Z,18.12
2018-01-13T23:47:08.842Z,17.88
2018-01-13T23:49:37.136Z,15.86
2018-01-13T23:52:05.418Z,16.42
2018-01-13T23:54:33.756Z,16.80
2018-01-13T23:57:02.050Z,17.16
2018-01-13T23:59:30.303Z,14.36
